sensor_id;sensor_type;location;lat;lon;timestamp;P1;durP1;ratioP1;P2;durP2;ratioP2
13999;SDS011;7075;53.574;10.054;2023-05-19T00:01:43;7.20;;;3.23;;
13999;SDS011;7075;53.574;10.054;2023-05-19T00:04:12;9.00;;;3.07;;
13999;SDS011;7075;53.574;10.054;2023-05-19T00:06:39;7.47;;;3.20;;
13999;SDS011;7075;53.574;10.054;2023-05-19T00:09:06;6.80;;;2.73;;
13999;SDS011;7075;53.574;10.054;2023-05-19T00:11:37;5.03;;;3.00;;
13999;SDS011;7075;53.574;10.054;2023-05-19T00:14:04;6.93;;;3.03;;
13999;SDS011;7075;53.574;10.054;2023-05-19T00:16:31;7.13;;;3.30;;
13999;SDS011;7075;53.574;10.054;2023-05-19T00:18:58;10.00;;;3.33;;
13999;SDS011;7075;53.574;10.054;2023-05-19T00:21:25;5.80;;;2.43;;
13999;SDS011;7075;53.574;10.054;2023-05-19T00:23:51;11.43;;;3.37;;
13999;SDS011;7075;53.574;10.054;2023-05-19T00:26:17;7.17;;;3.20;;
13999;SDS011;7075;53.574;10.054;2023-05-19T00:28:43;6.93;;;2.77;;
13999;SDS011;7075;53.574;10.054;2023-05-19T00:31:09;9.90;;;3.03;;
13999;SDS011;7075;53.574;10.054;2023-05-19T00:33:34;7.33;;;3.13;;
13999;SDS011;7075;53.574;10.054;2023-05-19T00:36:00;9.23;;;3.80;;
13999;SDS011;7075;53.574;10.054;2023-05-19T00:38:28;5.27;;;2.70;;
13999;SDS011;7075;53.574;10.054;2023-05-19T00:40:57;5.57;;;3.10;;
13999;SDS011;7075;53.574;10.054;2023-05-19T00:43:23;6.37;;;3.20;;
13999;SDS011;7075;53.574;10.054;2023-05-19T00:45:50;8.00;;;3.20;;
13999;SDS011;7075;53.574;10.054;2023-05-19T00:48:15;6.63;;;3.10;;
13999;SDS011;7075;53.574;10.054;2023-05-19T00:50:41;8.70;;;3.27;;
13999;SDS011;7075;53.574;10.054;2023-05-19T00:53:07;9.97;;;3.53;;
13999;SDS011;7075;53.574;10.054;2023-05-19T00:55:33;11.87;;;3.27;;
13999;SDS011;7075;53.574;10.054;2023-05-19T00:58:05;8.80;;;3.40;;
13999;SDS011;7075;53.574;10.054;2023-05-19T01:00:33;9.57;;;3.00;;
13999;SDS011;7075;53.574;10.054;2023-05-19T01:02:59;7.97;;;3.50;;
13999;SDS011;7075;53.574;10.054;2023-05-19T01:05:25;8.90;;;2.93;;
13999;SDS011;7075;53.574;10.054;2023-05-19T01:07:50;5.77;;;3.10;;
13999;SDS011;7075;53.574;10.054;2023-05-19T01:10:20;5.70;;;2.60;;
13999;SDS011;7075;53.574;10.054;2023-05-19T01:12:47;4.63;;;2.60;;
13999;SDS011;7075;53.574;10.054;2023-05-19T01:15:13;4.23;;;2.53;;
13999;SDS011;7075;53.574;10.054;2023-05-19T01:17:47;8.10;;;2.90;;
13999;SDS011;7075;53.574;10.054;2023-05-19T01:20:33;7.10;;;3.13;;
13999;SDS011;7075;53.574;10.054;2023-05-19T01:31:13;4.83;;;2.40;;
13999;SDS011;7075;53.574;10.054;2023-05-19T01:33:44;5.70;;;2.80;;
13999;SDS011;7075;53.574;10.054;2023-05-19T01:36:11;10.87;;;2.67;;
13999;SDS011;7075;53.574;10.054;2023-05-19T01:38:41;9.03;;;2.77;;
13999;SDS011;7075;53.574;10.054;2023-05-19T01:41:07;6.00;;;2.67;;
13999;SDS011;7075;53.574;10.054;2023-05-19T01:43:35;7.63;;;2.60;;
13999;SDS011;7075;53.574;10.054;2023-05-19T01:46:01;6.77;;;3.03;;
13999;SDS011;7075;53.574;10.054;2023-05-19T01:48:27;6.97;;;3.03;;
13999;SDS011;7075;53.574;10.054;2023-05-19T01:50:53;7.73;;;3.13;;
13999;SDS011;7075;53.574;10.054;2023-05-19T01:53:21;7.10;;;2.77;;
13999;SDS011;7075;53.574;10.054;2023-05-19T01:55:48;10.07;;;3.43;;
13999;SDS011;7075;53.574;10.054;2023-05-19T01:58:17;6.03;;;2.30;;
13999;SDS011;7075;53.574;10.054;2023-05-19T02:01:02;8.00;;;3.27;;
13999;SDS011;7075;53.574;10.054;2023-05-19T02:04:32;9.57;;;3.10;;
13999;SDS011;7075;53.574;10.054;2023-05-19T02:09:14;5.07;;;2.63;;
13999;SDS011;7075;53.574;10.054;2023-05-19T02:11:52;5.13;;;2.57;;
13999;SDS011;7075;53.574;10.054;2023-05-19T02:14:19;5.23;;;3.07;;
13999;SDS011;7075;53.574;10.054;2023-05-19T02:16:49;8.50;;;3.10;;
13999;SDS011;7075;53.574;10.054;2023-05-19T02:19:23;5.33;;;2.90;;
13999;SDS011;7075;53.574;10.054;2023-05-19T02:21:50;7.63;;;3.03;;
13999;SDS011;7075;53.574;10.054;2023-05-19T02:24:16;5.80;;;2.70;;
13999;SDS011;7075;53.574;10.054;2023-05-19T02:29:30;7.00;;;2.70;;
13999;SDS011;7075;53.574;10.054;2023-05-19T02:31:56;5.97;;;2.57;;
13999;SDS011;7075;53.574;10.054;2023-05-19T02:34:22;4.77;;;2.97;;
13999;SDS011;7075;53.574;10.054;2023-05-19T02:36:48;4.83;;;2.80;;
13999;SDS011;7075;53.574;10.054;2023-05-19T02:39:14;9.57;;;2.60;;
13999;SDS011;7075;53.574;10.054;2023-05-19T02:41:47;7.90;;;3.17;;
13999;SDS011;7075;53.574;10.054;2023-05-19T02:44:12;8.93;;;3.47;;
13999;SDS011;7075;53.574;10.054;2023-05-19T02:46:38;13.47;;;3.60;;
13999;SDS011;7075;53.574;10.054;2023-05-19T02:49:04;7.03;;;3.40;;
13999;SDS011;7075;53.574;10.054;2023-05-19T02:51:29;6.73;;;2.90;;
13999;SDS011;7075;53.574;10.054;2023-05-19T02:53:55;6.83;;;2.77;;
13999;SDS011;7075;53.574;10.054;2023-05-19T02:56:20;6.83;;;3.03;;
13999;SDS011;7075;53.574;10.054;2023-05-19T02:58:46;9.93;;;3.20;;
13999;SDS011;7075;53.574;10.054;2023-05-19T03:01:11;7.90;;;2.83;;
13999;SDS011;7075;53.574;10.054;2023-05-19T03:03:37;6.87;;;3.00;;
13999;SDS011;7075;53.574;10.054;2023-05-19T03:06:02;9.10;;;3.10;;
13999;SDS011;7075;53.574;10.054;2023-05-19T03:08:35;5.33;;;3.23;;
13999;SDS011;7075;53.574;10.054;2023-05-19T03:11:01;11.00;;;3.27;;
13999;SDS011;7075;53.574;10.054;2023-05-19T03:13:27;6.17;;;2.83;;
13999;SDS011;7075;53.574;10.054;2023-05-19T03:15:52;8.97;;;3.10;;
13999;SDS011;7075;53.574;10.054;2023-05-19T03:18:20;5.60;;;2.33;;
13999;SDS011;7075;53.574;10.054;2023-05-19T03:20:48;8.33;;;3.30;;
13999;SDS011;7075;53.574;10.054;2023-05-19T03:23:14;6.57;;;2.93;;
13999;SDS011;7075;53.574;10.054;2023-05-19T03:25:39;9.17;;;2.90;;
13999;SDS011;7075;53.574;10.054;2023-05-19T03:28:05;8.40;;;2.80;;
13999;SDS011;7075;53.574;10.054;2023-05-19T03:30:31;6.57;;;3.27;;
13999;SDS011;7075;53.574;10.054;2023-05-19T03:32:59;9.77;;;2.87;;
13999;SDS011;7075;53.574;10.054;2023-05-19T03:35:25;6.03;;;2.60;;
13999;SDS011;7075;53.574;10.054;2023-05-19T03:37:51;4.53;;;2.80;;
13999;SDS011;7075;53.574;10.054;2023-05-19T03:40:16;6.23;;;2.60;;
13999;SDS011;7075;53.574;10.054;2023-05-19T03:42:43;7.43;;;2.70;;
13999;SDS011;7075;53.574;10.054;2023-05-19T03:45:08;7.43;;;3.20;;
13999;SDS011;7075;53.574;10.054;2023-05-19T03:47:34;6.23;;;2.80;;
13999;SDS011;7075;53.574;10.054;2023-05-19T03:50:00;8.33;;;3.10;;
13999;SDS011;7075;53.574;10.054;2023-05-19T03:52:29;10.13;;;3.17;;
13999;SDS011;7075;53.574;10.054;2023-05-19T03:54:55;7.73;;;2.83;;
13999;SDS011;7075;53.574;10.054;2023-05-19T03:57:21;7.90;;;3.20;;
13999;SDS011;7075;53.574;10.054;2023-05-19T04:00:06;6.27;;;2.60;;
13999;SDS011;7075;53.574;10.054;2023-05-19T04:02:32;7.03;;;3.33;;
13999;SDS011;7075;53.574;10.054;2023-05-19T04:04:57;8.33;;;3.80;;
13999;SDS011;7075;53.574;10.054;2023-05-19T04:07:23;6.03;;;3.47;;
13999;SDS011;7075;53.574;10.054;2023-05-19T04:09:48;7.47;;;3.20;;
13999;SDS011;7075;53.574;10.054;2023-05-19T04:12:15;9.83;;;3.13;;
13999;SDS011;7075;53.574;10.054;2023-05-19T04:14:40;6.80;;;3.00;;
13999;SDS011;7075;53.574;10.054;2023-05-19T04:17:06;7.20;;;3.03;;
13999;SDS011;7075;53.574;10.054;2023-05-19T04:19:32;7.83;;;2.87;;
13999;SDS011;7075;53.574;10.054;2023-05-19T04:21:58;6.90;;;2.97;;
13999;SDS011;7075;53.574;10.054;2023-05-19T04:24:24;5.70;;;2.57;;
13999;SDS011;7075;53.574;10.054;2023-05-19T04:26:50;10.37;;;4.00;;
13999;SDS011;7075;53.574;10.054;2023-05-19T04:29:16;7.17;;;2.90;;
13999;SDS011;7075;53.574;10.054;2023-05-19T04:31:42;10.70;;;3.43;;
13999;SDS011;7075;53.574;10.054;2023-05-19T04:34:08;5.63;;;2.87;;
13999;SDS011;7075;53.574;10.054;2023-05-19T04:36:34;9.97;;;3.20;;
13999;SDS011;7075;53.574;10.054;2023-05-19T04:39:00;8.47;;;3.00;;
13999;SDS011;7075;53.574;10.054;2023-05-19T04:41:27;6.83;;;3.07;;
13999;SDS011;7075;53.574;10.054;2023-05-19T04:43:53;8.57;;;3.10;;
13999;SDS011;7075;53.574;10.054;2023-05-19T04:46:21;9.27;;;2.80;;
13999;SDS011;7075;53.574;10.054;2023-05-19T04:48:48;10.93;;;2.93;;
13999;SDS011;7075;53.574;10.054;2023-05-19T04:51:14;13.23;;;3.60;;
13999;SDS011;7075;53.574;10.054;2023-05-19T04:53:40;10.07;;;3.30;;
13999;SDS011;7075;53.574;10.054;2023-05-19T04:56:07;9.13;;;3.47;;
13999;SDS011;7075;53.574;10.054;2023-05-19T04:58:33;8.87;;;3.53;;
13999;SDS011;7075;53.574;10.054;2023-05-19T05:00:59;11.73;;;3.23;;
13999;SDS011;7075;53.574;10.054;2023-05-19T05:03:24;8.30;;;3.60;;
13999;SDS011;7075;53.574;10.054;2023-05-19T05:05:50;8.03;;;3.10;;
13999;SDS011;7075;53.574;10.054;2023-05-19T05:08:16;9.33;;;3.00;;
13999;SDS011;7075;53.574;10.054;2023-05-19T05:10:47;6.57;;;2.70;;
13999;SDS011;7075;53.574;10.054;2023-05-19T05:13:14;7.10;;;2.57;;
13999;SDS011;7075;53.574;10.054;2023-05-19T05:15:40;7.67;;;2.87;;
13999;SDS011;7075;53.574;10.054;2023-05-19T05:18:06;5.43;;;3.17;;
13999;SDS011;7075;53.574;10.054;2023-05-19T05:20:32;12.70;;;2.87;;
13999;SDS011;7075;53.574;10.054;2023-05-19T05:22:58;10.20;;;3.10;;
13999;SDS011;7075;53.574;10.054;2023-05-19T05:25:25;9.10;;;3.30;;
13999;SDS011;7075;53.574;10.054;2023-05-19T05:27:51;8.07;;;3.60;;
13999;SDS011;7075;53.574;10.054;2023-05-19T05:30:17;5.33;;;2.43;;
13999;SDS011;7075;53.574;10.054;2023-05-19T05:32:42;6.30;;;3.00;;
13999;SDS011;7075;53.574;10.054;2023-05-19T05:35:08;14.60;;;3.37;;
13999;SDS011;7075;53.574;10.054;2023-05-19T05:37:34;13.33;;;3.10;;
13999;SDS011;7075;53.574;10.054;2023-05-19T05:40:01;13.10;;;3.10;;
13999;SDS011;7075;53.574;10.054;2023-05-19T05:42:27;7.53;;;2.83;;
13999;SDS011;7075;53.574;10.054;2023-05-19T05:44:53;6.73;;;2.77;;
13999;SDS011;7075;53.574;10.054;2023-05-19T05:47:20;5.17;;;2.33;;
13999;SDS011;7075;53.574;10.054;2023-05-19T05:49:45;7.13;;;2.43;;
13999;SDS011;7075;53.574;10.054;2023-05-19T05:52:12;6.17;;;2.20;;
13999;SDS011;7075;53.574;10.054;2023-05-19T05:54:39;9.97;;;2.53;;
13999;SDS011;7075;53.574;10.054;2023-05-19T05:57:05;4.73;;;2.03;;
13999;SDS011;7075;53.574;10.054;2023-05-19T05:59:31;6.23;;;2.37;;
13999;SDS011;7075;53.574;10.054;2023-05-19T06:01:57;7.33;;;2.30;;
13999;SDS011;7075;53.574;10.054;2023-05-19T06:04:23;7.20;;;2.97;;
13999;SDS011;7075;53.574;10.054;2023-05-19T06:06:49;3.87;;;2.20;;
13999;SDS011;7075;53.574;10.054;2023-05-19T06:09:16;7.03;;;2.83;;
13999;SDS011;7075;53.574;10.054;2023-05-19T06:11:42;11.27;;;2.67;;
13999;SDS011;7075;53.574;10.054;2023-05-19T06:14:07;6.23;;;2.63;;
13999;SDS011;7075;53.574;10.054;2023-05-19T06:16:33;4.37;;;1.83;;
13999;SDS011;7075;53.574;10.054;2023-05-19T06:18:59;6.33;;;2.00;;
13999;SDS011;7075;53.574;10.054;2023-05-19T06:21:24;6.43;;;2.90;;
13999;SDS011;7075;53.574;10.054;2023-05-19T06:23:50;5.40;;;2.77;;
13999;SDS011;7075;53.574;10.054;2023-05-19T06:26:15;5.90;;;2.03;;
13999;SDS011;7075;53.574;10.054;2023-05-19T06:28:41;5.87;;;2.00;;
13999;SDS011;7075;53.574;10.054;2023-05-19T06:31:06;3.90;;;1.93;;
13999;SDS011;7075;53.574;10.054;2023-05-19T06:33:32;5.20;;;2.00;;
13999;SDS011;7075;53.574;10.054;2023-05-19T06:35:58;2.77;;;1.70;;
13999;SDS011;7075;53.574;10.054;2023-05-19T06:38:23;4.47;;;1.93;;
13999;SDS011;7075;53.574;10.054;2023-05-19T06:40:50;5.80;;;2.03;;
13999;SDS011;7075;53.574;10.054;2023-05-19T06:43:19;5.30;;;1.93;;
13999;SDS011;7075;53.574;10.054;2023-05-19T06:45:45;5.57;;;1.67;;
13999;SDS011;7075;53.574;10.054;2023-05-19T06:48:10;4.83;;;1.90;;
13999;SDS011;7075;53.574;10.054;2023-05-19T06:50:36;4.50;;;2.30;;
13999;SDS011;7075;53.574;10.054;2023-05-19T06:53:01;6.77;;;2.07;;
13999;SDS011;7075;53.574;10.054;2023-05-19T06:55:27;9.00;;;2.50;;
13999;SDS011;7075;53.574;10.054;2023-05-19T06:57:54;5.93;;;2.10;;
13999;SDS011;7075;53.574;10.054;2023-05-19T07:00:20;11.97;;;3.20;;
13999;SDS011;7075;53.574;10.054;2023-05-19T07:02:48;6.67;;;2.30;;
13999;SDS011;7075;53.574;10.054;2023-05-19T07:05:15;3.03;;;1.47;;
13999;SDS011;7075;53.574;10.054;2023-05-19T07:07:42;7.07;;;2.50;;
13999;SDS011;7075;53.574;10.054;2023-05-19T07:10:08;6.13;;;2.23;;
13999;SDS011;7075;53.574;10.054;2023-05-19T07:12:35;7.00;;;2.40;;
13999;SDS011;7075;53.574;10.054;2023-05-19T07:15:00;6.93;;;2.40;;
13999;SDS011;7075;53.574;10.054;2023-05-19T07:17:26;6.13;;;2.03;;
13999;SDS011;7075;53.574;10.054;2023-05-19T07:19:53;4.53;;;2.03;;
13999;SDS011;7075;53.574;10.054;2023-05-19T07:22:19;4.97;;;1.90;;
13999;SDS011;7075;53.574;10.054;2023-05-19T07:24:47;8.90;;;2.40;;
13999;SDS011;7075;53.574;10.054;2023-05-19T07:27:13;7.00;;;1.70;;
13999;SDS011;7075;53.574;10.054;2023-05-19T07:29:39;3.17;;;1.40;;
13999;SDS011;7075;53.574;10.054;2023-05-19T07:32:06;7.93;;;2.13;;
13999;SDS011;7075;53.574;10.054;2023-05-19T07:34:33;3.63;;;1.67;;
13999;SDS011;7075;53.574;10.054;2023-05-19T07:37:00;8.90;;;2.80;;
13999;SDS011;7075;53.574;10.054;2023-05-19T07:39:25;4.17;;;2.47;;
13999;SDS011;7075;53.574;10.054;2023-05-19T07:41:53;8.27;;;2.07;;
13999;SDS011;7075;53.574;10.054;2023-05-19T07:44:20;6.87;;;1.93;;
13999;SDS011;7075;53.574;10.054;2023-05-19T07:46:47;6.03;;;2.10;;
13999;SDS011;7075;53.574;10.054;2023-05-19T07:49:14;7.40;;;2.40;;
13999;SDS011;7075;53.574;10.054;2023-05-19T07:51:39;2.70;;;1.63;;
13999;SDS011;7075;53.574;10.054;2023-05-19T07:54:06;7.37;;;2.17;;
13999;SDS011;7075;53.574;10.054;2023-05-19T07:56:32;5.00;;;1.70;;
13999;SDS011;7075;53.574;10.054;2023-05-19T07:58:57;5.30;;;2.20;;
13999;SDS011;7075;53.574;10.054;2023-05-19T08:01:23;3.90;;;1.47;;
13999;SDS011;7075;53.574;10.054;2023-05-19T08:03:49;5.60;;;1.97;;
13999;SDS011;7075;53.574;10.054;2023-05-19T08:06:18;7.10;;;1.90;;
13999;SDS011;7075;53.574;10.054;2023-05-19T08:08:45;6.43;;;1.73;;
13999;SDS011;7075;53.574;10.054;2023-05-19T08:11:11;6.30;;;1.77;;
13999;SDS011;7075;53.574;10.054;2023-05-19T08:13:38;6.17;;;2.00;;
13999;SDS011;7075;53.574;10.054;2023-05-19T08:16:05;4.37;;;1.67;;
13999;SDS011;7075;53.574;10.054;2023-05-19T08:18:31;3.63;;;1.57;;
13999;SDS011;7075;53.574;10.054;2023-05-19T08:20:58;3.87;;;1.77;;
13999;SDS011;7075;53.574;10.054;2023-05-19T08:23:24;3.40;;;1.93;;
13999;SDS011;7075;53.574;10.054;2023-05-19T08:25:51;11.33;;;2.83;;
13999;SDS011;7075;53.574;10.054;2023-05-19T08:28:18;4.03;;;1.80;;
13999;SDS011;7075;53.574;10.054;2023-05-19T08:30:45;7.10;;;1.70;;
13999;SDS011;7075;53.574;10.054;2023-05-19T08:33:13;5.10;;;2.03;;
13999;SDS011;7075;53.574;10.054;2023-05-19T08:35:39;7.27;;;1.67;;
13999;SDS011;7075;53.574;10.054;2023-05-19T08:38:06;9.67;;;1.73;;
13999;SDS011;7075;53.574;10.054;2023-05-19T08:40:32;2.93;;;1.63;;
13999;SDS011;7075;53.574;10.054;2023-05-19T08:43:01;6.20;;;2.53;;
13999;SDS011;7075;53.574;10.054;2023-05-19T08:45:27;5.50;;;2.07;;
13999;SDS011;7075;53.574;10.054;2023-05-19T08:47:55;4.80;;;1.73;;
13999;SDS011;7075;53.574;10.054;2023-05-19T08:50:22;6.07;;;2.03;;
13999;SDS011;7075;53.574;10.054;2023-05-19T08:58:27;6.63;;;2.43;;
13999;SDS011;7075;53.574;10.054;2023-05-19T09:00:56;8.30;;;2.10;;
13999;SDS011;7075;53.574;10.054;2023-05-19T09:03:23;5.33;;;1.93;;
13999;SDS011;7075;53.574;10.054;2023-05-19T09:05:50;4.37;;;1.83;;
13999;SDS011;7075;53.574;10.054;2023-05-19T09:08:17;5.50;;;2.03;;
13999;SDS011;7075;53.574;10.054;2023-05-19T09:10:43;5.77;;;1.90;;
13999;SDS011;7075;53.574;10.054;2023-05-19T09:13:08;6.23;;;2.40;;
13999;SDS011;7075;53.574;10.054;2023-05-19T09:15:34;5.63;;;1.57;;
13999;SDS011;7075;53.574;10.054;2023-05-19T09:18:11;5.43;;;1.70;;
13999;SDS011;7075;53.574;10.054;2023-05-19T09:20:40;5.63;;;1.73;;
13999;SDS011;7075;53.574;10.054;2023-05-19T09:23:11;3.07;;;1.50;;
13999;SDS011;7075;53.574;10.054;2023-05-19T09:25:48;6.23;;;1.70;;
13999;SDS011;7075;53.574;10.054;2023-05-19T09:28:14;6.33;;;2.33;;
13999;SDS011;7075;53.574;10.054;2023-05-19T09:30:58;5.53;;;2.20;;
13999;SDS011;7075;53.574;10.054;2023-05-19T09:33:25;3.47;;;1.43;;
13999;SDS011;7075;53.574;10.054;2023-05-19T09:35:52;3.13;;;1.53;;
13999;SDS011;7075;53.574;10.054;2023-05-19T09:38:19;6.07;;;1.90;;
13999;SDS011;7075;53.574;10.054;2023-05-19T09:40:47;7.37;;;2.00;;
13999;SDS011;7075;53.574;10.054;2023-05-19T09:43:14;3.10;;;1.30;;
13999;SDS011;7075;53.574;10.054;2023-05-19T09:45:40;4.43;;;1.47;;
13999;SDS011;7075;53.574;10.054;2023-05-19T09:48:07;4.30;;;1.33;;
13999;SDS011;7075;53.574;10.054;2023-05-19T09:50:33;4.70;;;1.70;;
13999;SDS011;7075;53.574;10.054;2023-05-19T09:52:59;5.47;;;2.03;;
13999;SDS011;7075;53.574;10.054;2023-05-19T09:55:27;6.83;;;1.90;;
13999;SDS011;7075;53.574;10.054;2023-05-19T09:57:54;5.57;;;1.93;;
13999;SDS011;7075;53.574;10.054;2023-05-19T10:00:20;7.60;;;1.90;;
13999;SDS011;7075;53.574;10.054;2023-05-19T10:02:47;9.20;;;2.80;;
13999;SDS011;7075;53.574;10.054;2023-05-19T10:05:15;4.87;;;1.80;;
13999;SDS011;7075;53.574;10.054;2023-05-19T10:07:53;5.77;;;1.90;;
13999;SDS011;7075;53.574;10.054;2023-05-19T10:10:19;6.57;;;1.70;;
13999;SDS011;7075;53.574;10.054;2023-05-19T10:12:47;6.93;;;1.70;;
13999;SDS011;7075;53.574;10.054;2023-05-19T10:15:18;7.53;;;1.97;;
13999;SDS011;7075;53.574;10.054;2023-05-19T10:17:44;3.87;;;1.53;;
13999;SDS011;7075;53.574;10.054;2023-05-19T10:20:11;5.13;;;1.90;;
13999;SDS011;7075;53.574;10.054;2023-05-19T10:22:40;3.47;;;1.30;;
13999;SDS011;7075;53.574;10.054;2023-05-19T10:25:06;3.73;;;1.60;;
13999;SDS011;7075;53.574;10.054;2023-05-19T10:27:34;4.87;;;1.70;;
13999;SDS011;7075;53.574;10.054;2023-05-19T10:30:09;6.70;;;2.33;;
13999;SDS011;7075;53.574;10.054;2023-05-19T10:32:41;6.70;;;1.87;;
13999;SDS011;7075;53.574;10.054;2023-05-19T10:35:27;4.03;;;1.97;;
13999;SDS011;7075;53.574;10.054;2023-05-19T10:40:36;5.00;;;1.70;;
13999;SDS011;7075;53.574;10.054;2023-05-19T10:46:01;6.80;;;2.10;;
13999;SDS011;7075;53.574;10.054;2023-05-19T10:48:34;4.57;;;1.57;;
13999;SDS011;7075;53.574;10.054;2023-05-19T10:51:02;2.67;;;1.40;;
13999;SDS011;7075;53.574;10.054;2023-05-19T10:53:32;4.63;;;1.80;;
13999;SDS011;7075;53.574;10.054;2023-05-19T10:56:02;9.20;;;1.83;;
13999;SDS011;7075;53.574;10.054;2023-05-19T11:01:20;5.40;;;1.67;;
13999;SDS011;7075;53.574;10.054;2023-05-19T11:03:56;5.67;;;1.60;;
13999;SDS011;7075;53.574;10.054;2023-05-19T11:06:39;4.13;;;1.60;;
13999;SDS011;7075;53.574;10.054;2023-05-19T11:09:19;2.83;;;1.50;;
13999;SDS011;7075;53.574;10.054;2023-05-19T11:11:55;6.17;;;1.90;;
13999;SDS011;7075;53.574;10.054;2023-05-19T11:14:30;5.00;;;1.67;;
13999;SDS011;7075;53.574;10.054;2023-05-19T11:17:02;3.70;;;1.53;;
13999;SDS011;7075;53.574;10.054;2023-05-19T11:19:38;3.77;;;1.83;;
13999;SDS011;7075;53.574;10.054;2023-05-19T11:22:28;4.50;;;2.00;;
13999;SDS011;7075;53.574;10.054;2023-05-19T11:25:03;3.97;;;1.40;;
13999;SDS011;7075;53.574;10.054;2023-05-19T11:27:36;5.30;;;1.27;;
13999;SDS011;7075;53.574;10.054;2023-05-19T11:32:39;7.67;;;1.90;;
13999;SDS011;7075;53.574;10.054;2023-05-19T11:35:10;4.00;;;1.73;;
13999;SDS011;7075;53.574;10.054;2023-05-19T11:37:44;6.30;;;1.80;;
13999;SDS011;7075;53.574;10.054;2023-05-19T11:40:13;5.57;;;2.47;;
13999;SDS011;7075;53.574;10.054;2023-05-19T11:42:44;6.73;;;1.73;;
13999;SDS011;7075;53.574;10.054;2023-05-19T11:45:12;1.23;;;1.13;;
13999;SDS011;7075;53.574;10.054;2023-05-19T11:47:41;4.60;;;1.50;;
13999;SDS011;7075;53.574;10.054;2023-05-19T11:50:12;1.67;;;1.03;;
13999;SDS011;7075;53.574;10.054;2023-05-19T11:52:45;2.10;;;1.20;;
13999;SDS011;7075;53.574;10.054;2023-05-19T11:55:15;1.33;;;0.90;;
13999;SDS011;7075;53.574;10.054;2023-05-19T11:57:55;3.83;;;1.07;;
13999;SDS011;7075;53.574;10.054;2023-05-19T12:00:26;3.80;;;1.10;;
13999;SDS011;7075;53.574;10.054;2023-05-19T12:02:56;3.67;;;1.50;;
13999;SDS011;7075;53.574;10.054;2023-05-19T12:05:25;3.73;;;1.30;;
13999;SDS011;7075;53.574;10.054;2023-05-19T12:07:54;3.40;;;1.60;;
13999;SDS011;7075;53.574;10.054;2023-05-19T12:10:26;2.27;;;1.40;;
13999;SDS011;7075;53.574;10.054;2023-05-19T12:12:56;3.77;;;1.53;;
13999;SDS011;7075;53.574;10.054;2023-05-19T12:15:25;5.13;;;1.57;;
13999;SDS011;7075;53.574;10.054;2023-05-19T12:17:58;4.20;;;1.50;;
13999;SDS011;7075;53.574;10.054;2023-05-19T12:20:28;2.60;;;1.33;;
13999;SDS011;7075;53.574;10.054;2023-05-19T12:22:57;4.47;;;1.63;;
13999;SDS011;7075;53.574;10.054;2023-05-19T12:25:28;2.70;;;1.27;;
13999;SDS011;7075;53.574;10.054;2023-05-19T12:27:58;5.03;;;1.60;;
13999;SDS011;7075;53.574;10.054;2023-05-19T12:30:30;3.43;;;1.30;;
13999;SDS011;7075;53.574;10.054;2023-05-19T12:33:00;3.73;;;1.83;;
13999;SDS011;7075;53.574;10.054;2023-05-19T12:35:31;4.07;;;1.50;;
13999;SDS011;7075;53.574;10.054;2023-05-19T12:38:03;3.60;;;1.37;;
13999;SDS011;7075;53.574;10.054;2023-05-19T12:40:35;3.53;;;1.57;;
13999;SDS011;7075;53.574;10.054;2023-05-19T12:43:04;4.47;;;1.67;;
13999;SDS011;7075;53.574;10.054;2023-05-19T12:45:34;3.07;;;1.50;;
13999;SDS011;7075;53.574;10.054;2023-05-19T12:48:10;4.13;;;1.50;;
13999;SDS011;7075;53.574;10.054;2023-05-19T12:50:41;4.37;;;1.30;;
13999;SDS011;7075;53.574;10.054;2023-05-19T12:53:10;6.73;;;1.57;;
13999;SDS011;7075;53.574;10.054;2023-05-19T12:55:43;4.60;;;1.93;;
13999;SDS011;7075;53.574;10.054;2023-05-19T12:58:14;4.60;;;1.60;;
13999;SDS011;7075;53.574;10.054;2023-05-19T13:00:45;5.27;;;1.67;;
13999;SDS011;7075;53.574;10.054;2023-05-19T13:03:15;3.93;;;1.20;;
13999;SDS011;7075;53.574;10.054;2023-05-19T13:05:47;2.93;;;1.70;;
13999;SDS011;7075;53.574;10.054;2023-05-19T13:08:18;4.20;;;1.57;;
13999;SDS011;7075;53.574;10.054;2023-05-19T13:10:50;3.17;;;1.80;;
13999;SDS011;7075;53.574;10.054;2023-05-19T13:13:18;7.43;;;1.80;;
13999;SDS011;7075;53.574;10.054;2023-05-19T13:15:46;5.03;;;1.50;;
13999;SDS011;7075;53.574;10.054;2023-05-19T13:18:15;4.97;;;1.60;;
13999;SDS011;7075;53.574;10.054;2023-05-19T13:20:42;4.97;;;1.80;;
13999;SDS011;7075;53.574;10.054;2023-05-19T13:23:09;4.67;;;1.97;;
13999;SDS011;7075;53.574;10.054;2023-05-19T13:25:35;6.17;;;1.57;;
13999;SDS011;7075;53.574;10.054;2023-05-19T13:28:01;2.70;;;1.50;;
13999;SDS011;7075;53.574;10.054;2023-05-19T13:30:39;4.30;;;1.77;;
13999;SDS011;7075;53.574;10.054;2023-05-19T13:33:05;3.43;;;1.47;;
13999;SDS011;7075;53.574;10.054;2023-05-19T13:35:31;3.63;;;1.70;;
13999;SDS011;7075;53.574;10.054;2023-05-19T13:38:06;4.53;;;1.73;;
13999;SDS011;7075;53.574;10.054;2023-05-19T13:40:36;4.83;;;1.67;;
13999;SDS011;7075;53.574;10.054;2023-05-19T13:43:03;1.93;;;1.03;;
13999;SDS011;7075;53.574;10.054;2023-05-19T13:45:29;5.27;;;1.10;;
13999;SDS011;7075;53.574;10.054;2023-05-19T13:47:54;5.90;;;2.03;;
13999;SDS011;7075;53.574;10.054;2023-05-19T13:50:20;5.10;;;1.53;;
13999;SDS011;7075;53.574;10.054;2023-05-19T13:52:46;3.50;;;1.50;;
13999;SDS011;7075;53.574;10.054;2023-05-19T13:55:12;5.10;;;1.63;;
13999;SDS011;7075;53.574;10.054;2023-05-19T13:57:38;5.90;;;1.73;;
13999;SDS011;7075;53.574;10.054;2023-05-19T14:00:03;3.63;;;1.47;;
13999;SDS011;7075;53.574;10.054;2023-05-19T14:02:30;2.67;;;1.63;;
13999;SDS011;7075;53.574;10.054;2023-05-19T14:04:57;3.87;;;1.70;;
13999;SDS011;7075;53.574;10.054;2023-05-19T14:07:23;3.80;;;1.90;;
13999;SDS011;7075;53.574;10.054;2023-05-19T14:09:49;6.43;;;2.10;;
13999;SDS011;7075;53.574;10.054;2023-05-19T14:12:16;4.67;;;1.50;;
13999;SDS011;7075;53.574;10.054;2023-05-19T14:14:41;4.17;;;2.03;;
13999;SDS011;7075;53.574;10.054;2023-05-19T14:17:07;5.90;;;2.03;;
13999;SDS011;7075;53.574;10.054;2023-05-19T14:19:33;5.03;;;1.50;;
13999;SDS011;7075;53.574;10.054;2023-05-19T14:22:01;3.90;;;1.53;;
13999;SDS011;7075;53.574;10.054;2023-05-19T14:24:29;6.30;;;1.33;;
13999;SDS011;7075;53.574;10.054;2023-05-19T14:26:58;5.53;;;1.50;;
13999;SDS011;7075;53.574;10.054;2023-05-19T14:29:27;9.70;;;1.50;;
13999;SDS011;7075;53.574;10.054;2023-05-19T14:31:56;4.43;;;1.60;;
13999;SDS011;7075;53.574;10.054;2023-05-19T14:34:25;4.10;;;1.50;;
13999;SDS011;7075;53.574;10.054;2023-05-19T14:36:54;3.53;;;1.60;;
13999;SDS011;7075;53.574;10.054;2023-05-19T14:39:22;6.43;;;1.47;;
13999;SDS011;7075;53.574;10.054;2023-05-19T14:41:52;3.47;;;1.37;;
13999;SDS011;7075;53.574;10.054;2023-05-19T14:44:21;3.33;;;1.47;;
13999;SDS011;7075;53.574;10.054;2023-05-19T14:46:51;2.78;;;1.35;;
13999;SDS011;7075;53.574;10.054;2023-05-19T14:49:20;2.37;;;1.27;;
13999;SDS011;7075;53.574;10.054;2023-05-19T14:51:50;2.78;;;1.73;;
13999;SDS011;7075;53.574;10.054;2023-05-19T14:54:20;2.53;;;1.40;;
13999;SDS011;7075;53.574;10.054;2023-05-19T14:56:50;6.13;;;1.90;;
13999;SDS011;7075;53.574;10.054;2023-05-19T14:59:15;3.40;;;2.13;;
13999;SDS011;7075;53.574;10.054;2023-05-19T15:01:41;7.93;;;2.13;;
13999;SDS011;7075;53.574;10.054;2023-05-19T15:04:06;5.63;;;1.50;;
13999;SDS011;7075;53.574;10.054;2023-05-19T15:06:33;5.30;;;1.67;;
13999;SDS011;7075;53.574;10.054;2023-05-19T15:09:05;3.03;;;1.43;;
13999;SDS011;7075;53.574;10.054;2023-05-19T15:11:32;5.47;;;1.53;;
13999;SDS011;7075;53.574;10.054;2023-05-19T15:14:00;5.90;;;1.43;;
13999;SDS011;7075;53.574;10.054;2023-05-19T15:16:26;4.27;;;1.40;;
13999;SDS011;7075;53.574;10.054;2023-05-19T15:18:52;5.00;;;1.60;;
13999;SDS011;7075;53.574;10.054;2023-05-19T15:21:17;3.93;;;1.87;;
13999;SDS011;7075;53.574;10.054;2023-05-19T15:23:43;5.17;;;1.60;;